Aleksin, Russia
Current Conditions -  °F | °C
As of 12:00 AM on Saturday 25 Oct 2014 (Local Time) from UUMO Reporting Station
Clear Clear  
Wind Chill:   Ceiling: Unl
Heat Index: 18°   Visibility: 6mi
Dew Point:   Wind: 7mph
Humidity: 68%   Direction: 80°E
Pressure: 30.65"   Gusts: NA
Location:  54.52°N, 37.09°E
Report Text: UUMO 242100Z 08003MPS CAVOK M08/M13 Q1038 NOSIG RMK QFE762/101726090060
Loading
Personal Weather Stations






























Interactive Weather Map
Tropical Storm Tracking
New forecast layout! Learn more

10-Day Weather Forecast

Advertisements
Track Severe Weather on mobile